Time;durP1;ratioP1;P1;durP2;ratioP2;P2;SDS_P1;SDS_P2;PMS_P1;PMS_P2;Temp;Humidity;BMP_temperature;BMP_pressure;BME280_temperature;BME280_humidity;BME280_pressure;Samples;Min_cycle;Max_cycle;Signal;HPM_P1;HPM_P2
2021/08/29 00:00:01;;;;;;;6.97;2.97;;;18.00;99.90;;;;;;4927659;29;20197;-82
2021/08/29 00:02:26;;;;;;;7.23;3.40;;;17.90;99.90;;;;;;4918146;29;20189;-78
2021/08/29 00:04:52;;;;;;;8.77;3.37;;;17.90;99.90;;;;;;4917187;29;20322;-81
2021/08/29 00:07:17;;;;;;;7.80;2.30;;;17.90;99.90;;;;;;4921204;29;20229;-81
2021/08/29 00:09:43;;;;;;;6.20;2.93;;;17.80;99.90;;;;;;4908963;29;20281;-82
2021/08/29 00:12:10;;;;;;;13.50;3.80;;;17.80;99.90;;;;;;4907793;29;20659;-81
2021/08/29 00:14:37;;;;;;;7.60;2.90;;;17.70;99.90;;;;;;4913761;29;20192;-81
2021/08/29 00:17:02;;;;;;;9.97;3.10;;;17.70;99.90;;;;;;4917262;29;20202;-79
2021/08/29 00:19:28;;;;;;;7.53;2.73;;;17.70;99.90;;;;;;4914803;29;20659;-81
2021/08/29 00:21:54;;;;;;;6.00;3.07;;;17.80;99.90;;;;;;4917014;29;20561;-80
2021/08/29 00:24:19;;;;;;;7.50;3.30;;;17.80;99.90;;;;;;4912592;29;20205;-81
2021/08/29 00:26:45;;;;;;;4.07;2.80;;;17.60;99.90;;;;;;4910888;29;20213;-81
2021/08/29 00:29:10;;;;;;;5.17;3.17;;;17.60;99.90;;;;;;4910781;29;20183;-81
2021/08/29 00:31:36;;;;;;;5.87;3.00;;;17.50;99.90;;;;;;4916930;29;20182;-81
2021/08/29 00:34:02;;;;;;;6.00;3.03;;;17.70;99.90;;;;;;4916571;29;20181;-80
2021/08/29 00:36:27;;;;;;;6.40;2.70;;;17.50;99.90;;;;;;4917815;29;20634;-80
2021/08/29 00:38:53;;;;;;;7.03;3.50;;;17.50;99.90;;;;;;4907184;29;20671;-81
2021/08/29 00:41:18;;;;;;;11.67;4.07;;;17.60;99.90;;;;;;4916691;29;20657;-81
2021/08/29 00:43:44;;;;;;;8.10;4.73;;;17.40;99.90;;;;;;4916451;29;20203;-78
2021/08/29 00:46:10;;;;;;;12.27;3.80;;;17.40;99.90;;;;;;4913237;29;20588;-80
2021/08/29 00:48:36;;;;;;;6.07;3.47;;;17.60;99.90;;;;;;4910046;29;20193;-80
2021/08/29 00:51:02;;;;;;;8.10;3.43;;;17.50;99.90;;;;;;4915615;29;20181;-81
2021/08/29 00:53:32;;;;;;;6.77;3.47;;;17.40;99.90;;;;;;4911226;29;20280;-80
2021/08/29 00:55:57;;;;;;;12.13;4.10;;;17.40;99.90;;;;;;4909662;29;20186;-78
2021/08/29 00:58:29;;;;;;;10.43;3.73;;;17.40;99.90;;;;;;4902634;29;20189;-80
2021/08/29 01:00:57;;;;;;;16.40;3.90;;;17.40;99.90;;;;;;4914001;29;20232;-81
2021/08/29 01:03:29;;;;;;;9.10;4.23;;;17.40;99.90;;;;;;4914933;29;20228;-79
2021/08/29 01:06:21;;;;;;;10.10;3.70;;;17.30;99.90;;;;;;4905907;29;20226;-78
2021/08/29 01:08:53;;;;;;;5.73;3.40;;;17.20;99.90;;;;;;4916159;29;20203;-81
2021/08/29 01:11:25;;;;;;;10.83;3.47;;;17.10;99.90;;;;;;4909528;29;20209;-82
2021/08/29 01:13:57;;;;;;;11.33;3.87;;;17.20;99.90;;;;;;4912554;29;20237;-80
2021/08/29 01:16:23;;;;;;;9.30;3.50;;;17.20;99.90;;;;;;4915016;29;20197;-81
2021/08/29 01:18:53;;;;;;;8.77;3.80;;;17.40;99.90;;;;;;4915378;29;20673;-78
2021/08/29 01:21:23;;;;;;;14.60;3.53;;;17.40;99.90;;;;;;4916592;29;20189;-78
2021/08/29 01:23:54;;;;;;;8.57;3.60;;;17.30;99.90;;;;;;4914966;29;20271;-79
2021/08/29 01:26:44;;;;;;;10.43;3.73;;;17.10;99.90;;;;;;4904901;29;20697;-80
2021/08/29 01:29:12;;;;;;;7.10;3.90;;;17.00;99.90;;;;;;4914873;29;20192;-81
2021/08/29 01:31:40;;;;;;;7.40;3.37;;;16.90;99.90;;;;;;4916045;29;20231;-81
2021/08/29 01:34:10;;;;;;;7.77;3.80;;;16.90;99.90;;;;;;4906803;29;20647;-81
2021/08/29 01:36:41;;;;;;;7.60;3.63;;;16.80;99.90;;;;;;4917056;29;20195;-81
2021/08/29 01:39:08;;;;;;;7.30;3.43;;;16.90;99.90;;;;;;4930707;29;20193;-81
2021/08/29 01:41:36;;;;;;;7.77;3.57;;;16.90;99.90;;;;;;4910898;29;20200;-82
2021/08/29 01:44:04;;;;;;;6.90;3.90;;;16.90;99.90;;;;;;4921070;29;20196;-80
2021/08/29 01:46:30;;;;;;;5.00;3.50;;;17.00;99.90;;;;;;4914756;29;20208;-83
2021/08/29 01:48:56;;;;;;;8.13;3.90;;;16.90;99.90;;;;;;4910114;29;20185;-81
2021/08/29 01:51:22;;;;;;;9.03;4.10;;;17.00;99.90;;;;;;4916577;29;20259;-81
2021/08/29 01:53:48;;;;;;;7.47;3.77;;;17.10;99.90;;;;;;4914162;29;20661;-82
2021/08/29 01:56:14;;;;;;;10.10;4.40;;;17.30;99.90;;;;;;4925061;29;20196;-80
2021/08/29 01:58:39;;;;;;;10.17;4.33;;;17.50;99.90;;;;;;4913102;29;20188;-81
2021/08/29 02:01:09;;;;;;;12.47;4.10;;;17.70;99.90;;;;;;4906804;29;20244;-81
2021/08/29 02:03:35;;;;;;;8.07;3.33;;;17.60;99.90;;;;;;4910751;29;20192;-80
2021/08/29 02:06:40;;;;;;;10.10;4.00;;;17.40;99.90;;;;;;4902236;29;20685;-80
2021/08/29 02:09:09;;;;;;;12.37;4.77;;;17.30;99.90;;;;;;4905069;29;20207;-81
2021/08/29 02:11:39;;;;;;;7.83;3.87;;;17.20;99.90;;;;;;4907341;29;20203;-80
2021/08/29 02:14:10;;;;;;;10.87;4.10;;;17.20;99.90;;;;;;4906573;29;20203;-81
2021/08/29 02:16:40;;;;;;;8.97;3.83;;;17.20;99.90;;;;;;4914376;29;20662;-81
2021/08/29 02:19:07;;;;;;;10.57;4.37;;;17.20;99.90;;;;;;4903808;29;20193;-80
2021/08/29 02:21:33;;;;;;;8.40;3.87;;;17.20;99.90;;;;;;4915732;29;20216;-80
2021/08/29 02:24:01;;;;;;;10.90;4.33;;;17.10;99.90;;;;;;4907662;29;20182;-81
2021/08/29 02:26:27;;;;;;;11.03;4.53;;;17.20;99.90;;;;;;4911204;29;20215;-81
2021/08/29 02:28:54;;;;;;;7.03;4.20;;;17.20;99.90;;;;;;4906078;29;20276;-81
2021/08/29 02:31:20;;;;;;;10.53;4.13;;;17.20;99.90;;;;;;4913569;29;20530;-81
2021/08/29 02:33:47;;;;;;;10.63;5.00;;;17.20;99.90;;;;;;4908255;29;20189;-80
2021/08/29 02:36:15;;;;;;;9.27;4.60;;;17.20;99.90;;;;;;4919433;29;20658;-80
2021/08/29 02:38:42;;;;;;;7.03;4.33;;;17.10;99.90;;;;;;4915438;29;20272;-80
2021/08/29 02:41:09;;;;;;;12.73;4.80;;;17.10;99.90;;;;;;4918413;29;20200;-80
2021/08/29 02:43:36;;;;;;;10.40;5.27;;;17.00;99.90;;;;;;4907411;29;20197;-81
2021/08/29 02:46:02;;;;;;;10.63;4.80;;;17.20;99.90;;;;;;4919456;29;20663;-81
2021/08/29 02:48:30;;;;;;;15.60;5.00;;;17.10;99.90;;;;;;4911018;29;20189;-81
2021/08/29 02:50:58;;;;;;;11.77;4.63;;;17.10;99.90;;;;;;4918413;29;20536;-80
2021/08/29 02:53:24;;;;;;;9.40;4.80;;;17.00;99.90;;;;;;4908321;29;20589;-80
2021/08/29 02:55:55;;;;;;;11.87;4.70;;;17.00;99.90;;;;;;4907603;29;20272;-81
2021/08/29 02:58:21;;;;;;;14.27;5.17;;;17.10;99.90;;;;;;4918587;29;20200;-80
2021/08/29 03:00:47;;;;;;;10.87;5.07;;;17.20;99.90;;;;;;4914231;29;20276;-81
2021/08/29 03:03:13;;;;;;;7.77;4.77;;;17.40;99.90;;;;;;4909274;29;20268;-80
2021/08/29 03:05:39;;;;;;;7.87;4.47;;;17.40;99.90;;;;;;4929242;29;20200;-80
2021/08/29 03:08:05;;;;;;;11.53;5.03;;;17.40;99.90;;;;;;4917260;29;20189;-80
2021/08/29 03:10:31;;;;;;;8.80;4.87;;;17.30;99.90;;;;;;4910136;29;20198;-81
2021/08/29 03:13:00;;;;;;;13.73;4.67;;;17.30;99.90;;;;;;4919121;29;20210;-81
2021/08/29 03:15:27;;;;;;;12.07;4.70;;;17.30;99.90;;;;;;4917159;29;20201;-81
2021/08/29 03:17:53;;;;;;;12.13;5.17;;;17.30;99.90;;;;;;4917605;29;20657;-80
2021/08/29 03:20:18;;;;;;;8.17;4.57;;;17.20;99.90;;;;;;4912920;29;20316;-80
2021/08/29 03:22:44;;;;;;;9.07;4.77;;;17.30;99.90;;;;;;4919145;29;20660;-81
2021/08/29 03:25:11;;;;;;;8.70;4.43;;;17.50;99.90;;;;;;4916013;29;20209;-80
2021/08/29 03:27:36;;;;;;;10.47;4.93;;;17.50;99.90;;;;;;4908237;29;20321;-80
2021/08/29 03:30:03;;;;;;;8.03;4.77;;;17.40;99.90;;;;;;4918677;29;20640;-81
2021/08/29 03:32:28;;;;;;;9.60;4.63;;;17.40;99.90;;;;;;4913622;29;20190;-79
2021/08/29 03:35:00;;;;;;;10.30;4.27;;;17.70;99.90;;;;;;4906995;29;20199;-81
2021/08/29 03:37:26;;;;;;;13.57;5.23;;;17.70;99.90;;;;;;4910022;29;20201;-80
2021/08/29 03:39:52;;;;;;;10.40;4.73;;;17.70;99.90;;;;;;4916476;29;20653;-82
2021/08/29 03:42:20;;;;;;;14.90;5.37;;;17.70;99.90;;;;;;4913977;29;20280;-80
2021/08/29 03:44:46;;;;;;;9.40;5.00;;;17.60;99.90;;;;;;4913438;29;20533;-81
2021/08/29 03:47:12;;;;;;;9.70;4.63;;;17.60;99.90;;;;;;4915351;29;20211;-81
2021/08/29 03:49:38;;;;;;;11.40;4.60;;;17.50;99.90;;;;;;4910290;29;20174;-78
2021/08/29 03:52:05;;;;;;;12.63;4.97;;;17.70;99.90;;;;;;4917715;29;20541;-81
2021/08/29 03:54:31;;;;;;;9.13;4.50;;;17.80;99.90;;;;;;4914142;29;20190;-78
2021/08/29 03:56:57;;;;;;;11.53;4.93;;;17.80;99.90;;;;;;4917641;29;20181;-81
2021/08/29 03:59:23;;;;;;;11.17;4.30;;;17.80;99.90;;;;;;4909310;29;20191;-81
2021/08/29 04:01:49;;;;;;;13.60;4.87;;;17.90;99.90;;;;;;4919286;29;20248;-81
2021/08/29 04:04:14;;;;;;;9.53;4.67;;;18.00;99.90;;;;;;4920804;29;20260;-81
2021/08/29 04:06:42;;;;;;;9.87;5.03;;;17.90;99.90;;;;;;4904173;29;20678;-83
2021/08/29 04:09:09;;;;;;;10.83;4.80;;;18.00;99.90;;;;;;4914172;29;20181;-81
2021/08/29 04:11:37;;;;;;;15.27;5.47;;;17.90;99.90;;;;;;4910419;29;20202;-80
2021/08/29 04:14:03;;;;;;;11.27;5.33;;;17.80;99.90;;;;;;4920369;29;20220;-80
2021/08/29 04:16:29;;;;;;;7.53;4.67;;;18.00;99.90;;;;;;4905531;29;20568;-81
2021/08/29 04:18:58;;;;;;;14.77;5.43;;;18.00;99.90;;;;;;4915881;29;20184;-80
2021/08/29 04:21:25;;;;;;;10.77;4.77;;;18.00;99.90;;;;;;4906994;29;20187;-81
2021/08/29 04:23:51;;;;;;;11.00;4.83;;;17.90;99.90;;;;;;4906511;29;20326;-78
2021/08/29 04:26:16;;;;;;;15.07;5.03;;;17.80;99.90;;;;;;4915511;29;20704;-81
2021/08/29 04:28:42;;;;;;;11.17;4.47;;;17.60;99.90;;;;;;4915027;29;20654;-78
2021/08/29 04:31:11;;;;;;;13.10;4.97;;;17.40;99.90;;;;;;4909134;29;20189;-81
2021/08/29 04:33:36;;;;;;;11.33;5.00;;;17.40;99.90;;;;;;4916182;29;20189;-82
2021/08/29 04:36:08;;;;;;;8.87;4.63;;;17.40;99.90;;;;;;4903964;29;20217;-81
2021/08/29 04:38:35;;;;;;;13.50;5.63;;;17.50;99.90;;;;;;4918844;29;20552;-81
2021/08/29 04:41:00;;;;;;;10.00;4.60;;;17.60;99.90;;;;;;4909628;29;20193;-80
2021/08/29 04:43:26;;;;;;;11.37;4.63;;;17.50;99.90;;;;;;4915087;29;20599;-81
2021/08/29 04:45:52;;;;;;;13.47;5.97;;;17.50;99.90;;;;;;4908266;29;20292;-81
2021/08/29 04:48:19;;;;;;;11.60;5.07;;;17.50;99.90;;;;;;4910019;29;20271;-81
2021/08/29 04:50:45;;;;;;;15.20;4.50;;;17.40;99.90;;;;;;4911236;29;20182;-80
2021/08/29 04:53:11;;;;;;;11.20;4.90;;;17.40;99.90;;;;;;4911775;29;20654;-80
2021/08/29 04:55:37;;;;;;;11.70;5.03;;;17.60;99.90;;;;;;4914261;29;20186;-81
2021/08/29 04:58:02;;;;;;;9.93;5.10;;;17.90;99.90;;;;;;4901500;29;20200;-80
2021/08/29 05:00:28;;;;;;;11.87;5.53;;;17.80;99.90;;;;;;4904883;29;20187;-78
2021/08/29 05:02:54;;;;;;;8.97;4.53;;;17.90;99.90;;;;;;4919561;29;20555;-81
2021/08/29 05:05:20;;;;;;;10.43;5.03;;;17.90;99.90;;;;;;4902346;29;20197;-80
2021/08/29 05:07:45;;;;;;;10.13;5.10;;;17.70;99.90;;;;;;4931350;29;20220;-81
2021/08/29 05:10:11;;;;;;;9.07;4.20;;;17.60;99.90;;;;;;4907461;29;20193;-80
2021/08/29 05:12:36;;;;;;;11.77;4.93;;;17.90;99.90;;;;;;4912635;29;20713;-81
2021/08/29 05:15:03;;;;;;;10.57;4.93;;;17.60;99.90;;;;;;4916921;29;20259;-81
2021/08/29 05:17:28;;;;;;;8.57;4.53;;;17.70;99.90;;;;;;4908829;29;20193;-81
2021/08/29 05:19:54;;;;;;;12.50;4.77;;;17.80;99.90;;;;;;4915961;29;20228;-80
2021/08/29 05:22:19;;;;;;;10.40;4.50;;;17.80;99.90;;;;;;4918197;29;20635;-80
2021/08/29 05:24:45;;;;;;;10.40;3.90;;;17.90;99.90;;;;;;4915840;29;20213;-80
2021/08/29 05:27:11;;;;;;;9.60;4.37;;;17.80;99.90;;;;;;4916039;29;20224;-78
2021/08/29 05:29:36;;;;;;;7.27;4.10;;;17.90;99.90;;;;;;4904440;29;20657;-81
2021/08/29 05:32:02;;;;;;;8.53;4.57;;;17.90;99.90;;;;;;4913634;29;20659;-81
2021/08/29 05:34:28;;;;;;;12.23;4.33;;;18.00;99.90;;;;;;4909532;29;20193;-80
2021/08/29 05:36:53;;;;;;;10.40;4.23;;;18.00;99.90;;;;;;4919034;29;20200;-78
2021/08/29 05:39:19;;;;;;;10.80;4.03;;;18.10;99.90;;;;;;4909853;29;20328;-78
2021/08/29 05:41:44;;;;;;;10.27;4.10;;;18.10;99.90;;;;;;4913322;29;20205;-78
2021/08/29 05:44:10;;;;;;;9.17;4.10;;;18.10;99.90;;;;;;4908951;29;20193;-80
2021/08/29 05:46:36;;;;;;;8.67;4.17;;;18.10;99.90;;;;;;4913022;29;20216;-81
2021/08/29 05:49:01;;;;;;;12.30;4.40;;;18.20;99.90;;;;;;4915357;29;20281;-81
2021/08/29 05:51:27;;;;;;;7.37;4.60;;;18.40;99.90;;;;;;4904145;29;20546;-81
2021/08/29 05:53:52;;;;;;;11.47;5.07;;;18.30;99.90;;;;;;4914451;29;20657;-81
2021/08/29 05:56:18;;;;;;;8.60;4.07;;;18.30;99.90;;;;;;4905485;29;20182;-81
2021/08/29 05:58:44;;;;;;;12.33;4.80;;;18.30;99.90;;;;;;4910976;29;20185;-82
2021/08/29 06:01:14;;;;;;;9.27;4.03;;;18.10;99.90;;;;;;4908066;29;20185;-81
2021/08/29 06:03:40;;;;;;;13.67;4.77;;;18.10;99.90;;;;;;4911701;29;20672;-81
2021/08/29 06:06:06;;;;;;;12.40;4.50;;;18.00;99.90;;;;;;4904577;29;20230;-81
2021/08/29 06:08:32;;;;;;;9.37;4.63;;;18.10;99.90;;;;;;4907521;29;20208;-82
2021/08/29 06:10:58;;;;;;;9.57;4.27;;;18.20;99.90;;;;;;4911020;29;20194;-81
2021/08/29 06:13:24;;;;;;;8.07;4.00;;;18.20;99.90;;;;;;4923702;29;20231;-79
2021/08/29 06:15:49;;;;;;;10.70;4.30;;;18.20;99.90;;;;;;4918584;29;20223;-81
2021/08/29 06:18:15;;;;;;;10.47;4.63;;;18.30;99.90;;;;;;4919608;29;20658;-81
2021/08/29 06:20:41;;;;;;;6.63;3.90;;;18.40;99.90;;;;;;4925102;29;20200;-81
2021/08/29 06:23:07;;;;;;;9.30;4.47;;;18.50;99.90;;;;;;4914014;29;20184;-81
2021/08/29 06:25:32;;;;;;;7.77;5.03;;;18.30;99.90;;;;;;4919705;29;20216;-81
2021/08/29 06:27:58;;;;;;;8.60;4.50;;;18.40;99.90;;;;;;4915356;29;20217;-81
2021/08/29 06:30:24;;;;;;;10.87;4.90;;;18.50;99.90;;;;;;4911317;29;20185;-81
2021/08/29 06:32:50;;;;;;;8.33;4.43;;;18.50;99.90;;;;;;4914279;29;20200;-81
2021/08/29 06:35:15;;;;;;;7.60;4.10;;;18.50;99.90;;;;;;4918059;29;20220;-81
2021/08/29 06:37:41;;;;;;;8.20;3.87;;;18.70;99.90;;;;;;4916085;29;20236;-80
2021/08/29 06:40:07;;;;;;;10.37;4.43;;;18.80;99.90;;;;;;4915118;29;20185;-81
2021/08/29 06:42:33;;;;;;;7.67;4.07;;;18.80;99.90;;;;;;4913610;29;20181;-80
2021/08/29 06:44:58;;;;;;;8.10;3.77;;;18.90;99.90;;;;;;4917207;29;20547;-81
2021/08/29 06:47:24;;;;;;;7.87;4.03;;;18.90;99.90;;;;;;4918376;29;20600;-80
2021/08/29 06:49:49;;;;;;;7.70;3.70;;;18.90;99.90;;;;;;4917476;29;20559;-81
2021/08/29 06:52:15;;;;;;;11.50;4.50;;;18.90;99.90;;;;;;4919367;29;20187;-81
2021/08/29 06:54:41;;;;;;;12.53;4.07;;;18.90;99.90;;;;;;4909494;29;20191;-81
2021/08/29 06:57:06;;;;;;;6.60;4.00;;;18.90;99.90;;;;;;4909489;29;20709;-80
2021/08/29 06:59:32;;;;;;;7.17;3.80;;;19.00;99.90;;;;;;4918930;29;20200;-80
2021/08/29 07:01:57;;;;;;;8.50;3.73;;;19.00;99.90;;;;;;4917003;29;20719;-81
2021/08/29 07:04:23;;;;;;;9.90;3.33;;;19.10;99.90;;;;;;4908467;29;20217;-80
2021/08/29 07:06:49;;;;;;;7.97;4.30;;;19.20;99.90;;;;;;4910738;29;20216;-80
2021/08/29 07:09:14;;;;;;;9.47;4.03;;;19.10;99.90;;;;;;4916990;29;20197;-81
2021/08/29 07:11:40;;;;;;;6.80;3.83;;;19.30;99.90;;;;;;4918550;29;20204;-80
2021/08/29 07:14:05;;;;;;;8.20;3.97;;;19.10;99.90;;;;;;4917583;29;20241;-81
2021/08/29 07:16:31;;;;;;;9.13;3.60;;;19.20;99.90;;;;;;4907787;29;20228;-80
2021/08/29 07:18:57;;;;;;;10.83;3.80;;;19.40;99.90;;;;;;4913170;29;20191;-81
2021/08/29 07:21:23;;;;;;;8.83;3.30;;;19.50;99.90;;;;;;4917814;29;20224;-81
2021/08/29 07:23:50;;;;;;;8.90;3.80;;;19.50;99.90;;;;;;4915160;29;20265;-81
2021/08/29 07:26:15;;;;;;;11.93;4.20;;;19.50;99.90;;;;;;4917283;29;20258;-81
2021/08/29 07:28:43;;;;;;;10.73;3.97;;;19.40;99.90;;;;;;4911179;29;20194;-81
2021/08/29 07:31:09;;;;;;;10.80;4.07;;;19.40;99.90;;;;;;4917165;29;20199;-81
2021/08/29 07:33:35;;;;;;;8.43;3.93;;;19.50;99.90;;;;;;4906359;29;20194;-81
2021/08/29 07:36:01;;;;;;;7.20;3.43;;;19.60;99.90;;;;;;4908544;29;20255;-81
2021/08/29 07:38:27;;;;;;;7.27;3.37;;;19.70;99.90;;;;;;4913444;29;20194;-81
2021/08/29 07:40:52;;;;;;;8.53;3.63;;;19.70;99.90;;;;;;4912450;29;20199;-81
2021/08/29 07:43:18;;;;;;;9.03;3.87;;;19.70;99.90;;;;;;4915661;29;20229;-81
2021/08/29 07:45:43;;;;;;;9.03;3.57;;;19.80;99.90;;;;;;4919954;29;20660;-81
2021/08/29 07:48:09;;;;;;;10.50;3.50;;;19.80;99.90;;;;;;4914105;29;20190;-81
2021/08/29 07:50:35;;;;;;;11.53;3.40;;;19.90;99.90;;;;;;4902038;29;20189;-81
2021/08/29 07:53:00;;;;;;;9.00;4.27;;;20.00;99.90;;;;;;4912144;29;20290;-81
2021/08/29 07:55:26;;;;;;;7.03;3.47;;;20.10;99.90;;;;;;4917562;29;20199;-81
2021/08/29 07:57:52;;;;;;;10.30;3.77;;;20.10;99.90;;;;;;4913913;29;20195;-82
2021/08/29 08:00:17;;;;;;;12.33;3.57;;;20.00;99.90;;;;;;4913619;29;20187;-81
2021/08/29 08:02:43;;;;;;;11.13;3.60;;;20.00;99.90;;;;;;4910398;29;20250;-82
2021/08/29 08:05:09;;;;;;;5.60;3.03;;;20.20;99.90;;;;;;4905856;29;20539;-82
2021/08/29 08:07:34;;;;;;;8.07;3.20;;;20.30;99.90;;;;;;4908585;29;20709;-82
2021/08/29 08:10:00;;;;;;;8.87;2.90;;;20.30;99.90;;;;;;4912457;29;20177;-82
2021/08/29 08:12:26;;;;;;;8.33;2.80;;;20.30;99.90;;;;;;4917123;29;20263;-82
2021/08/29 08:14:51;;;;;;;10.43;3.07;;;20.50;99.90;;;;;;4917770;29;20273;-81
2021/08/29 08:17:17;;;;;;;6.93;2.40;;;20.60;99.90;;;;;;4918045;29;20240;-81
2021/08/29 08:19:43;;;;;;;8.87;2.33;;;20.60;99.90;;;;;;4909522;29;20216;-81
2021/08/29 08:22:08;;;;;;;6.23;2.60;;;20.60;99.90;;;;;;4911859;29;20259;-81
2021/08/29 08:24:34;;;;;;;7.67;2.50;;;20.50;99.90;;;;;;4916091;29;20258;-81
2021/08/29 08:26:59;;;;;;;8.27;2.27;;;20.60;99.90;;;;;;4913518;29;20679;-82
2021/08/29 08:29:26;;;;;;;9.07;2.50;;;20.50;99.90;;;;;;4913039;29;20282;-81
2021/08/29 08:31:52;;;;;;;9.17;2.37;;;20.50;99.90;;;;;;4927257;29;20196;-81
2021/08/29 08:34:18;;;;;;;8.87;2.50;;;20.50;99.90;;;;;;4911527;29;20678;-82
2021/08/29 08:36:44;;;;;;;8.40;2.80;;;20.50;99.90;;;;;;4913364;29;20743;-81
2021/08/29 08:39:09;;;;;;;8.10;2.30;;;20.50;99.90;;;;;;4912346;29;20197;-81
2021/08/29 08:41:35;;;;;;;9.73;2.60;;;20.60;99.90;;;;;;4917663;29;20632;-81
2021/08/29 08:44:00;;;;;;;8.40;2.63;;;20.60;99.90;;;;;;4913116;29;20227;-81
2021/08/29 08:46:27;;;;;;;7.10;2.50;;;20.70;99.90;;;;;;4912823;29;20211;-81
2021/08/29 08:48:53;;;;;;;6.53;2.20;;;20.70;99.90;;;;;;4917930;29;20185;-82
2021/08/29 08:51:28;;;;;;;11.00;2.43;;;20.70;99.90;;;;;;4912020;29;20727;-81
2021/08/29 08:54:00;;;;;;;9.53;3.27;;;20.80;99.90;;;;;;4916774;29;20191;-81
2021/08/29 08:56:25;;;;;;;9.83;2.20;;;20.90;99.90;;;;;;4907774;29;20696;-81
2021/08/29 08:58:57;;;;;;;6.77;2.33;;;21.00;99.90;;;;;;4914617;29;20212;-81
2021/08/29 09:01:22;;;;;;;7.13;2.13;;;21.00;99.90;;;;;;4912732;29;20196;-81
2021/08/29 09:03:50;;;;;;;7.97;2.40;;;21.10;99.90;;;;;;4918363;29;20194;-82
2021/08/29 09:06:16;;;;;;;10.20;2.97;;;21.00;99.90;;;;;;4915892;29;20207;-81
2021/08/29 09:08:42;;;;;;;8.70;2.73;;;21.20;99.90;;;;;;4916304;29;20192;-81
2021/08/29 09:11:07;;;;;;;8.83;2.83;;;21.30;99.90;;;;;;4917361;29;20248;-81
2021/08/29 09:13:49;;;;;;;8.67;2.07;;;21.30;99.90;;;;;;4917245;29;20196;-82
2021/08/29 09:16:18;;;;;;;7.30;2.17;;;21.40;99.90;;;;;;4910081;29;20287;-79
2021/08/29 09:18:48;;;;;;;4.90;2.13;;;21.30;99.90;;;;;;4911338;29;20652;-81
2021/08/29 09:21:24;;;;;;;9.20;2.30;;;21.50;99.90;;;;;;4926369;29;20691;-82
2021/08/29 09:23:51;;;;;;;8.33;2.30;;;21.50;99.90;;;;;;4904150;29;20207;-79
2021/08/29 09:26:18;;;;;;;7.00;2.47;;;21.60;99.90;;;;;;4909222;29;20283;-81
2021/08/29 09:28:45;;;;;;;4.80;2.33;;;21.70;99.90;;;;;;4899707;29;20196;-81
2021/08/29 09:31:11;;;;;;;5.43;2.37;;;21.70;99.90;;;;;;4902405;29;20188;-80
2021/08/29 09:33:37;;;;;;;7.60;2.43;;;21.90;99.90;;;;;;4904584;29;20188;-81
2021/08/29 09:36:03;;;;;;;6.03;2.10;;;22.00;99.90;;;;;;4899785;29;20189;-82
2021/08/29 09:38:40;;;;;;;5.23;2.20;;;22.00;99.90;;;;;;4913034;29;20268;-81
2021/08/29 09:41:24;;;;;;;7.43;2.10;;;21.90;99.90;;;;;;4910778;29;20235;-82
2021/08/29 09:43:50;;;;;;;7.57;2.43;;;21.90;99.90;;;;;;4914954;29;20189;-82
2021/08/29 09:46:16;;;;;;;3.80;1.97;;;21.90;99.90;;;;;;4914819;29;20216;-79
2021/08/29 09:48:50;;;;;;;6.10;1.90;;;22.00;99.90;;;;;;4917420;29;20207;-81
2021/08/29 09:51:16;;;;;;;6.60;2.60;;;21.90;99.90;;;;;;4916563;29;20195;-81
2021/08/29 09:53:46;;;;;;;9.13;2.40;;;21.90;99.90;;;;;;4915555;29;20192;-82
2021/08/29 09:56:20;;;;;;;5.77;1.87;;;21.90;99.90;;;;;;4915118;29;20189;-81
2021/08/29 09:58:46;;;;;;;7.93;2.23;;;21.90;99.90;;;;;;4916906;29;20238;-82
2021/08/29 10:01:14;;;;;;;10.57;2.67;;;21.80;99.90;;;;;;4915100;29;20180;-82
2021/08/29 10:03:46;;;;;;;6.37;2.60;;;21.90;99.90;;;;;;4915723;29;20180;-82
2021/08/29 10:06:25;;;;;;;6.50;2.23;;;22.00;99.90;;;;;;4916430;29;20206;-81
2021/08/29 10:09:02;;;;;;;7.73;2.60;;;22.10;99.90;;;;;;4915184;29;20192;-79
2021/08/29 10:11:30;;;;;;;7.57;2.47;;;22.00;99.90;;;;;;4905278;29;20199;-81
2021/08/29 10:13:57;;;;;;;7.07;2.40;;;21.90;99.90;;;;;;4919315;29;20214;-83
2021/08/29 10:16:24;;;;;;;7.53;2.63;;;21.90;99.90;;;;;;4921582;29;20543;-81
2021/08/29 10:18:53;;;;;;;6.43;2.93;;;21.90;99.90;;;;;;4938449;29;20184;-82
2021/08/29 10:21:25;;;;;;;7.33;2.50;;;21.90;99.90;;;;;;4921694;29;20598;-81
2021/08/29 10:23:53;;;;;;;6.07;2.53;;;22.10;99.90;;;;;;4915574;29;20188;-82
2021/08/29 10:26:21;;;;;;;11.17;3.77;;;22.20;99.90;;;;;;4916319;29;20220;-82
2021/08/29 10:29:07;;;;;;;7.87;2.73;;;22.30;99.90;;;;;;4916491;29;20597;-82
2021/08/29 10:31:43;;;;;;;7.27;2.83;;;22.20;99.90;;;;;;4916203;29;20740;-81
2021/08/29 10:34:11;;;;;;;7.43;2.73;;;22.10;99.90;;;;;;4915357;29;20604;-82
2021/08/29 10:36:37;;;;;;;11.80;3.00;;;22.00;99.90;;;;;;4929896;29;20199;-82
2021/08/29 10:39:03;;;;;;;8.73;2.83;;;21.90;99.90;;;;;;4915592;29;20240;-81
2021/08/29 10:41:30;;;;;;;11.70;3.23;;;21.90;99.90;;;;;;4916172;29;20193;-82
2021/08/29 10:43:56;;;;;;;7.03;2.43;;;21.90;99.90;;;;;;4915745;29;20635;-82
2021/08/29 10:46:23;;;;;;;5.47;2.47;;;21.70;99.90;;;;;;4916045;29;20657;-82
2021/08/29 10:48:50;;;;;;;8.80;3.03;;;21.70;99.90;;;;;;4922820;29;20184;-82
2021/08/29 10:51:19;;;;;;;10.07;3.30;;;21.80;99.90;;;;;;4922907;29;20272;-82
2021/08/29 10:53:53;;;;;;;10.53;2.90;;;21.70;99.90;;;;;;4915976;29;20258;-78
2021/08/29 10:56:22;;;;;;;10.27;2.80;;;21.70;99.90;;;;;;4919629;29;20193;-81
2021/08/29 10:59:09;;;;;;;10.30;2.70;;;21.60;99.90;;;;;;4919292;29;20594;-82
2021/08/29 11:01:34;;;;;;;4.97;2.33;;;21.60;99.90;;;;;;4918599;29;20191;-80
2021/08/29 11:04:26;;;;;;;8.17;2.60;;;21.60;99.90;;;;;;4917292;29;20187;-81
2021/08/29 11:06:58;;;;;;;7.07;2.03;;;21.70;99.90;;;;;;4917386;29;20212;-82
2021/08/29 11:09:34;;;;;;;7.17;2.50;;;21.70;99.90;;;;;;4919593;29;20203;-81
2021/08/29 11:12:12;;;;;;;11.83;2.63;;;21.50;99.90;;;;;;4919388;29;20210;-81
2021/08/29 11:14:47;;;;;;;5.40;2.60;;;21.30;99.90;;;;;;4919473;29;20198;-82
2021/08/29 11:17:19;;;;;;;8.00;2.53;;;21.00;99.90;;;;;;4916450;29;20510;-81
2021/08/29 11:19:47;;;;;;;9.93;2.93;;;20.80;99.90;;;;;;4917723;29;20199;-81
2021/08/29 11:22:15;;;;;;;11.67;3.10;;;20.60;99.90;;;;;;4918503;29;20648;-78
2021/08/29 11:25:11;;;;;;;5.27;2.33;;;20.50;99.90;;;;;;4918500;29;20226;-82
2021/08/29 11:27:44;;;;;;;3.20;2.10;;;20.40;99.90;;;;;;4918757;29;20244;-81
2021/08/29 11:30:21;;;;;;;7.17;2.77;;;20.40;99.90;;;;;;4918079;29;20191;-79
2021/08/29 11:33:01;;;;;;;8.73;2.43;;;20.40;99.90;;;;;;4917665;29;20197;-81
2021/08/29 11:35:38;;;;;;;6.90;2.40;;;20.40;99.90;;;;;;4919119;29;20182;-81
2021/08/29 11:38:08;;;;;;;7.20;2.60;;;20.40;99.90;;;;;;4917653;29;20187;-81
2021/08/29 11:40:54;;;;;;;10.20;2.43;;;20.50;99.90;;;;;;4918898;29;20284;-81
2021/08/29 11:43:28;;;;;;;7.40;2.40;;;20.50;99.90;;;;;;4918822;29;20241;-80
2021/08/29 11:46:14;;;;;;;6.20;2.20;;;20.70;99.90;;;;;;4918749;29;20190;-78
2021/08/29 11:48:58;;;;;;;8.77;2.30;;;20.60;99.90;;;;;;4918693;29;20274;-81
2021/08/29 11:51:44;;;;;;;3.63;2.30;;;20.70;99.90;;;;;;4918619;29;20193;-80
2021/08/29 11:54:12;;;;;;;7.53;2.27;;;20.80;99.90;;;;;;4923097;29;20178;-83
2021/08/29 11:56:38;;;;;;;8.77;2.53;;;20.90;99.90;;;;;;4917185;29;20649;-81
2021/08/29 11:59:07;;;;;;;4.70;2.07;;;21.00;99.90;;;;;;4918260;29;20180;-81
2021/08/29 12:01:33;;;;;;;7.07;2.43;;;21.10;99.90;;;;;;4917602;29;20184;-82
2021/08/29 12:04:01;;;;;;;10.43;2.67;;;21.00;99.90;;;;;;4916345;29;20184;-81
2021/08/29 12:06:38;;;;;;;7.73;1.90;;;21.00;99.90;;;;;;4917715;29;20211;-83
2021/08/29 12:09:25;;;;;;;10.43;2.60;;;20.90;99.90;;;;;;4918353;29;20207;-81
2021/08/29 12:11:52;;;;;;;7.53;2.07;;;20.90;99.90;;;;;;4918349;29;20596;-81
2021/08/29 12:14:28;;;;;;;9.50;2.50;;;20.80;99.90;;;;;;4918088;29;20282;-81
2021/08/29 12:16:56;;;;;;;10.23;2.30;;;20.70;99.90;;;;;;4917445;29;20201;-81
2021/08/29 12:19:36;;;;;;;6.70;2.50;;;20.60;99.90;;;;;;4929711;29;20670;-81
2021/08/29 12:22:05;;;;;;;10.27;2.47;;;20.60;99.90;;;;;;4917347;29;20187;-81
2021/08/29 12:24:36;;;;;;;10.33;3.30;;;20.60;99.90;;;;;;4916419;29;20302;-81
2021/08/29 12:27:08;;;;;;;7.27;2.17;;;20.60;99.90;;;;;;4918187;29;20332;-81
2021/08/29 12:29:49;;;;;;;5.37;2.27;;;20.80;99.90;;;;;;4916635;29;20745;-81
2021/08/29 12:32:20;;;;;;;10.90;2.73;;;20.60;99.90;;;;;;4918348;29;20182;-80
2021/08/29 12:34:54;;;;;;;7.00;2.20;;;20.50;99.90;;;;;;4917191;29;20195;-81
2021/08/29 12:37:20;;;;;;;7.23;2.57;;;20.20;99.90;;;;;;4916906;29;20598;-81
2021/08/29 12:40:06;;;;;;;6.30;2.63;;;20.10;99.90;;;;;;4915873;29;20583;-81
2021/08/29 12:42:34;;;;;;;5.03;2.10;;;20.00;99.90;;;;;;4916618;29;20221;-81
2021/08/29 12:45:03;;;;;;;8.37;2.30;;;20.00;99.90;;;;;;4917736;29;20181;-82
2021/08/29 12:47:30;;;;;;;4.80;2.43;;;20.10;99.90;;;;;;4915321;29;20577;-81